This is the latest recevied weather packets stored in our database for station/object KD0RII. If no packets are shown the sender has not sent any weather packets the latest 1 day(s).
| Time | Temp. | Humidity | Pressure | Rain* | Wind** | Luminosity | Snow |
|---|---|---|---|---|---|---|---|
| 1778094024 | 16.11° C | 39% | 1020.3 hPa | 0 mm | - | 836 W/m² | - |
| 1778093115 | 15.56° C | 39% | 1020.6 hPa | 0 mm | - | 835 W/m² | - |
| 1778092508 | 15.56° C | 41% | 1020.6 hPa | 0 mm | - | 834 W/m² | - |
| 1778092205 | 16.11° C | 41% | 1020.8 hPa | 0 mm | - | 654 W/m² | - |
| 1778091902 | 16.11° C | 41% | 1020.5 hPa | 0 mm | - | 888 W/m² | - |
| 1778091599 | 15.56° C | 39% | 1020.8 hPa | 0 mm | - | 846 W/m² | - |
| 1778091297 | 15° C | 43% | 1020.8 hPa | 0 mm | - | 817 W/m² | - |
| 1778087346 | 13.89° C | 46% | 1021.5 hPa | 0 mm | - | 519 W/m² | - |
| 1778086735 | 13.33° C | 45% | 1021.2 hPa | 0 mm | - | 320 W/m² | - |
| 1778086433 | 13.89° C | 46% | 1021.4 hPa | 0 mm | - | 303 W/m² | - |
| 1778084913 | 15° C | 48% | 1021.1 hPa | 0 mm | - | 443 W/m² | - |
| 1778084309 | 14.44° C | 48% | 1021.3 hPa | 0 mm | - | 526 W/m² | - |
| 1778081661 | 13.33° C | 56% | 1020.6 hPa | 0 mm | - | 428 W/m² | - |
| 1778081359 | 13.33° C | 56% | 1020.8 hPa | 0 mm | - | 328 W/m² | - |
| 1778078330 | 13.33° C | 59% | 1020.4 hPa | 0 mm | - | 439 W/m² | - |
| 1778076516 | 10.56° C | 72% | 1020.5 hPa | 0 mm | - | 144 W/m² | - |
| 1778076213 | 10° C | 75% | 1020.7 hPa | 0 mm | - | 197 W/m² | - |
| 1778075303 | 10° C | 75% | 1020.5 hPa | 0 mm | - | 146 W/m² | - |
| 1778074090 | 9.44° C | 82% | 1020.3 hPa | 0 mm | - | 126 W/m² | - |
| 1778072878 | 8.89° C | 91% | 1020.2 hPa | 0 mm | - | 111 W/m² | - |
| 1778070762 | 7.22° C | 91% | 1018.8 hPa | 0 mm | - | 69 W/m² | - |
| 1778069550 | 6.67° C | 91% | 1018.7 hPa | 0 mm | - | 38 W/m² | - |
| 1778068643 | 6.67° C | 91% | 1018.6 hPa | 0 mm | - | 15 W/m² | - |
| 1778068341 | 6.67° C | 91% | 1018.5 hPa | 0 mm | - | 12 W/m² | - |
| 1778068038 | 6.67° C | 91% | 1018.6 hPa | 0 mm | - | 11 W/m² | - |
* Rain latest hour (hover to see other rain measurements)
** Current wind speed in m/s (hover to see current wind gust speed)